Time;durP1;ratioP1;P1;durP2;ratioP2;P2;SDS_P1;SDS_P2;PMS_P1;PMS_P2;Temp;Humidity;BMP_temperature;BMP_pressure;BME280_temperature;BME280_humidity;BME280_pressure;Samples;Min_cycle;Max_cycle;Signal;HPM_P1;HPM_P2
2022/01/17 00:00:25;;;;;;;55.75;20.25;;;;;;;;;;5113296;28;20024;-66
2022/01/17 00:02:52;;;;;;;53.90;19.40;;;;;;;;;;5092860;28;20132;-65
2022/01/17 00:05:18;;;;;;;59.75;20.67;;;;;;;;;;5094913;28;20038;-66
2022/01/17 00:07:45;;;;;;;61.85;22.50;;;;;;;;;;5094895;28;20028;-65
2022/01/17 00:10:12;;;;;;;56.65;19.40;;;;;;;;;;5113180;28;20028;-65
2022/01/17 00:12:44;;;;;;;55.58;20.88;;;;;;;;;;5094721;28;20428;-65
2022/01/17 00:15:18;;;;;;;54.20;20.15;;;;;;;;;;5113109;28;20386;-65
2022/01/17 00:18:26;;;;;;;50.15;21.50;;;;;;;;;;5092398;28;20031;-64
2022/01/17 00:20:52;;;;;;;52.72;20.15;;;;;;;;;;5111026;28;20034;-65
2022/01/17 00:23:18;;;;;;;58.22;20.77;;;;;;;;;;5113090;28;20047;-65
2022/01/17 00:25:45;;;;;;;52.30;20.88;;;;;;;;;;5113343;28;20019;-65
2022/01/17 00:28:11;;;;;;;59.70;22.17;;;;;;;;;;5113341;28;20055;-65
2022/01/17 00:30:37;;;;;;;58.45;21.08;;;;;;;;;;5113274;28;20093;-65
2022/01/17 00:33:04;;;;;;;59.88;21.67;;;;;;;;;;5094991;28;20028;-65
2022/01/17 00:35:30;;;;;;;65.10;22.88;;;;;;;;;;5113201;28;20028;-65
2022/01/17 00:37:56;;;;;;;59.67;21.92;;;;;;;;;;5094580;28;20040;-65
2022/01/17 00:40:23;;;;;;;58.58;24.30;;;;;;;;;;5113200;28;20031;-64
2022/01/17 00:42:50;;;;;;;50.53;22.75;;;;;;;;;;5113110;28;20039;-64
2022/01/17 00:45:19;;;;;;;58.72;23.55;;;;;;;;;;5113120;28;20161;-65
2022/01/17 00:47:50;;;;;;;54.00;23.58;;;;;;;;;;5113141;28;20032;-65
2022/01/17 00:50:16;;;;;;;55.67;24.98;;;;;;;;;;5112905;28;20123;-65
2022/01/17 00:52:42;;;;;;;58.83;22.15;;;;;;;;;;5113327;28;20047;-65
2022/01/17 00:55:09;;;;;;;58.78;22.38;;;;;;;;;;5094727;28;20485;-65
2022/01/17 00:57:35;;;;;;;56.42;22.75;;;;;;;;;;5113008;28;20103;-65
2022/01/17 01:00:02;;;;;;;52.22;23.08;;;;;;;;;;5113363;28;20039;-65
2022/01/17 01:02:28;;;;;;;55.13;22.83;;;;;;;;;;5112929;28;20032;-65
2022/01/17 01:04:55;;;;;;;49.13;22.63;;;;;;;;;;5111412;28;20036;-65
2022/01/17 01:07:21;;;;;;;66.60;25.38;;;;;;;;;;5113314;28;20028;-65
2022/01/17 01:10:10;;;;;;;65.25;24.85;;;;;;;;;;5112871;28;20051;-64
2022/01/17 01:12:34;;;;;;;55.75;24.48;;;;;;;;;;5111187;28;20035;-64
2022/01/17 01:15:01;;;;;;;64.95;24.10;;;;;;;;;;5109771;28;20036;-65
2022/01/17 01:17:34;;;;;;;62.45;23.55;;;;;;;;;;5112088;28;20035;-65
2022/01/17 01:20:29;;;;;;;61.92;25.67;;;;;;;;;;5112620;28;20056;-65
2022/01/17 01:28:45;;;;;;;65.32;26.40;;;;;;;;;;5112966;28;20085;-65
2022/01/17 01:31:16;;;;;;;52.80;26.67;;;;;;;;;;5093483;28;20042;-66
2022/01/17 01:33:50;;;;;;;64.78;28.45;;;;;;;;;;5116447;28;20446;-65
2022/01/17 01:36:23;;;;;;;53.22;26.40;;;;;;;;;;5114971;28;20043;-64
2022/01/17 01:38:49;;;;;;;61.25;29.77;;;;;;;;;;5113002;28;20101;-64
2022/01/17 01:41:16;;;;;;;74.30;31.33;;;;;;;;;;5097296;28;20039;-64
2022/01/17 01:43:42;;;;;;;72.03;33.38;;;;;;;;;;5116059;28;20035;-64
2022/01/17 01:46:10;;;;;;;88.85;34.58;;;;;;;;;;5116197;28;20497;-65
2022/01/17 01:48:37;;;;;;;72.63;32.97;;;;;;;;;;5115161;28;20039;-65
2022/01/17 01:51:04;;;;;;;81.65;35.95;;;;;;;;;;5115226;28;20054;-65
2022/01/17 01:53:30;;;;;;;81.82;33.05;;;;;;;;;;5115922;28;20553;-64
2022/01/17 01:55:58;;;;;;;64.65;32.42;;;;;;;;;;5112960;28;20487;-65
2022/01/17 01:58:25;;;;;;;72.15;35.47;;;;;;;;;;5113815;28;20047;-66
2022/01/17 02:00:52;;;;;;;68.00;33.53;;;;;;;;;;5112598;28;20542;-67
2022/01/17 02:03:19;;;;;;;70.90;33.80;;;;;;;;;;5112079;28;20046;-64
2022/01/17 02:05:45;;;;;;;75.97;33.90;;;;;;;;;;5114611;28;20066;-65
2022/01/17 02:08:12;;;;;;;70.68;34.08;;;;;;;;;;5114378;28;20027;-64
2022/01/17 02:10:38;;;;;;;72.80;33.90;;;;;;;;;;5115127;28;20172;-65
2022/01/17 02:13:05;;;;;;;75.07;34.28;;;;;;;;;;5096072;27;20462;-66
2022/01/17 02:15:31;;;;;;;72.10;34.70;;;;;;;;;;5115182;27;20080;-64
2022/01/17 02:17:58;;;;;;;70.28;31.58;;;;;;;;;;5114677;28;20461;-65
2022/01/17 02:20:35;;;;;;;74.05;32.08;;;;;;;;;;5115503;28;20038;-64
2022/01/17 02:23:04;;;;;;;72.95;34.20;;;;;;;;;;5113868;28;20165;-65
2022/01/17 02:25:31;;;;;;;74.10;33.42;;;;;;;;;;5113204;28;20059;-66
2022/01/17 02:27:58;;;;;;;71.57;34.28;;;;;;;;;;5111700;28;21571;-65
2022/01/17 02:30:26;;;;;;;76.20;37.35;;;;;;;;;;5115381;27;20092;-65
2022/01/17 02:33:29;;;;;;;80.93;36.00;;;;;;;;;;5102639;28;20040;-65
2022/01/17 02:35:56;;;;;;;66.20;33.88;;;;;;;;;;5105603;28;20501;-64
2022/01/17 02:38:22;;;;;;;76.82;35.03;;;;;;;;;;5107532;28;20048;-65
2022/01/17 02:40:50;;;;;;;81.50;37.50;;;;;;;;;;5108705;28;20043;-66
2022/01/17 02:43:18;;;;;;;75.95;35.00;;;;;;;;;;5118018;27;20039;-65
2022/01/17 02:48:21;;;;;;;74.68;39.13;;;;;;;;;;5129343;27;20031;-66
2022/01/17 02:50:48;;;;;;;78.25;38.03;;;;;;;;;;5115286;27;20053;-66
2022/01/17 02:53:14;;;;;;;84.90;40.67;;;;;;;;;;5099360;28;20122;-66
2022/01/17 02:55:46;;;;;;;93.18;42.17;;;;;;;;;;5111725;28;20035;-65
2022/01/17 02:58:12;;;;;;;85.40;41.83;;;;;;;;;;5108172;27;20027;-66
2022/01/17 03:00:39;;;;;;;82.40;42.92;;;;;;;;;;5125093;27;20035;-66
2022/01/17 03:03:09;;;;;;;84.68;45.75;;;;;;;;;;5119956;27;20103;-66
2022/01/17 03:05:35;;;;;;;91.70;46.28;;;;;;;;;;5097165;28;20478;-67
2022/01/17 03:08:03;;;;;;;102.50;48.72;;;;;;;;;;5110306;28;20115;-66
2022/01/17 03:13:07;;;;;;;111.00;50.42;;;;;;;;;;5112355;28;20382;-67
2022/01/17 03:15:33;;;;;;;104.85;51.95;;;;;;;;;;5113095;28;20034;-66
2022/01/17 03:18:00;;;;;;;108.40;53.85;;;;;;;;;;5095778;28;20429;-65
2022/01/17 03:20:26;;;;;;;100.75;51.53;;;;;;;;;;5096317;28;20095;-66
2022/01/17 03:22:52;;;;;;;118.82;52.95;;;;;;;;;;5107542;28;20091;-66
2022/01/17 03:25:19;;;;;;;125.32;55.47;;;;;;;;;;5112397;27;20035;-65
2022/01/17 03:27:45;;;;;;;116.00;52.58;;;;;;;;;;5115310;27;20032;-66
2022/01/17 03:30:11;;;;;;;119.55;54.45;;;;;;;;;;5115484;27;20043;-66
2022/01/17 03:32:38;;;;;;;120.72;56.15;;;;;;;;;;5100259;28;20032;-66
2022/01/17 03:35:05;;;;;;;110.78;52.05;;;;;;;;;;5104158;27;20035;-67
2022/01/17 03:37:31;;;;;;;114.75;49.33;;;;;;;;;;5117091;27;20035;-66
2022/01/17 03:40:15;;;;;;;122.05;54.78;;;;;;;;;;5113623;27;20043;-66
2022/01/17 03:42:41;;;;;;;119.13;54.65;;;;;;;;;;5110871;27;20049;-66
2022/01/17 03:45:08;;;;;;;108.97;57.38;;;;;;;;;;5112941;27;20043;-67
2022/01/17 03:47:39;;;;;;;115.13;56.00;;;;;;;;;;5102676;28;20028;-66
2022/01/17 03:50:07;;;;;;;120.90;59.15;;;;;;;;;;5121304;27;20035;-66
2022/01/17 03:52:33;;;;;;;120.03;58.60;;;;;;;;;;5118311;27;20422;-67
2022/01/17 03:55:00;;;;;;;112.70;52.80;;;;;;;;;;5098667;28;20031;-66
2022/01/17 03:57:26;;;;;;;121.10;55.70;;;;;;;;;;5110583;27;20043;-65
2022/01/17 03:59:53;;;;;;;92.80;43.58;;;;;;;;;;5111545;27;20039;-65
2022/01/17 04:02:19;;;;;;;95.35;38.67;;;;;;;;;;5110981;28;20514;-65
2022/01/17 04:04:45;;;;;;;71.13;36.10;;;;;;;;;;5114565;27;20047;-64
2022/01/17 04:07:12;;;;;;;70.80;32.85;;;;;;;;;;5110066;27;20050;-66
2022/01/17 04:09:38;;;;;;;69.25;34.40;;;;;;;;;;5114050;27;20036;-65
2022/01/17 04:12:04;;;;;;;73.78;38.08;;;;;;;;;;5109908;28;20091;-65
2022/01/17 04:14:35;;;;;;;80.32;42.15;;;;;;;;;;5114507;27;20036;-65
2022/01/17 04:17:01;;;;;;;81.40;43.40;;;;;;;;;;5109550;28;20084;-65
2022/01/17 04:19:28;;;;;;;68.35;39.75;;;;;;;;;;5092840;28;20059;-64
2022/01/17 04:21:54;;;;;;;65.60;36.00;;;;;;;;;;5112632;28;20063;-66
2022/01/17 04:24:21;;;;;;;63.47;37.17;;;;;;;;;;5110849;27;20365;-66
2022/01/17 04:26:47;;;;;;;55.10;31.33;;;5.60;99.90;;;;;;5109333;27;20047;-64
2022/01/17 04:29:13;;;;;;;52.75;33.95;;;5.60;99.90;;;;;;5090176;28;20032;-66
2022/01/17 04:31:39;;;;;;;52.45;32.40;;;5.60;99.90;;;;;;5108693;27;20048;-66
2022/01/17 04:34:05;;;;;;;46.72;28.80;;;5.60;99.90;;;;;;5092668;28;20062;-65
2022/01/17 04:36:36;;;;;;;44.72;28.65;;;5.50;99.90;;;;;;5111009;28;20122;-68
2022/01/17 04:39:03;;;;;;;42.38;28.35;;;5.40;99.90;;;;;;5109158;28;20039;-65
2022/01/17 04:41:38;;;;;;;45.15;27.52;;;5.40;99.90;;;;;;5109803;28;20046;-65
2022/01/17 04:47:27;;;;;;;38.00;26.52;;;5.30;99.90;;;;;;5109936;28;20066;-64
2022/01/17 04:49:53;;;;;;;39.03;26.88;;;5.40;99.90;;;;;;5111810;28;20043;-66
2022/01/17 04:52:19;;;;;;;44.03;29.33;;;5.40;99.90;;;;;;5108692;28;20071;-64
2022/01/17 04:54:52;;;;;;;43.17;30.30;;;5.40;99.90;;;;;;5118275;28;20039;-66
2022/01/17 04:57:19;;;;;;;50.35;31.77;;;5.50;99.90;;;;;;5104399;28;20036;-64
2022/01/17 04:59:45;;;;;;;51.72;32.17;;;5.50;99.90;;;;;;5111301;28;20122;-66
2022/01/17 05:02:11;;;;;;;48.30;33.70;;;5.40;99.90;;;;;;5098171;28;20459;-64
2022/01/17 05:04:37;;;;;;;53.42;35.42;;;5.40;99.90;;;;;;5092615;28;20127;-64
2022/01/17 05:07:05;;;;;;;50.25;35.30;;;5.40;99.90;;;;;;5110110;28;20043;-65
2022/01/17 05:09:31;;;;;;;49.13;34.80;;;5.40;99.90;;;;;;5096316;28;20044;-68
2022/01/17 05:11:57;;;;;;;49.28;34.08;;;5.40;99.90;;;;;;5098820;28;20043;-64
2022/01/17 05:14:25;;;;;;;51.55;36.15;;;5.40;99.90;;;;;;5115525;28;20132;-66
2022/01/17 05:16:58;;;;;;;51.33;36.42;;;5.50;99.90;;;;;;5094635;28;20036;-66
2022/01/17 05:22:09;;;;;;;54.05;38.42;;;5.40;99.90;;;;;;5110427;27;20092;-66
2022/01/17 05:24:35;;;;;;;52.40;37.28;;;5.30;99.90;;;;;;5095538;28;20035;-66
2022/01/17 05:27:02;;;;;;;56.75;38.25;;;5.20;99.90;;;;;;5111007;27;21050;-63
2022/01/17 05:29:28;;;;;;;48.58;33.92;;;5.10;99.90;;;;;;5110252;28;20100;-66
2022/01/17 05:31:54;;;;;;;44.20;32.65;;;5.00;99.90;;;;;;5110474;27;20424;-68
2022/01/17 05:34:20;;;;;;;41.45;27.17;;;4.90;99.90;;;;;;5114099;27;20043;-67
2022/01/17 05:36:46;;;;;;;38.08;25.83;;;4.70;99.90;;;;;;5111491;28;20088;-66
2022/01/17 05:39:12;;;;;;;26.77;21.33;;;4.70;99.90;;;;;;5111384;27;20071;-66
2022/01/17 05:41:38;;;;;;;19.20;15.38;;;4.70;99.90;;;;;;5111311;28;20110;-67
2022/01/17 05:44:04;;;;;;;15.20;12.10;;;4.50;99.90;;;;;;5110961;28;20131;-66
2022/01/17 05:46:30;;;;;;;15.43;10.02;;;4.30;99.90;;;;;;5109557;28;20023;-66
2022/01/17 05:49:24;;;;;;;12.65;9.65;;;4.30;99.90;;;;;;5113833;28;20059;-69
2022/01/17 05:51:50;;;;;;;14.07;9.85;;;4.30;99.90;;;;;;5111299;27;20134;-66
2022/01/17 05:54:16;;;;;;;12.95;10.57;;;4.30;99.90;;;;;;5112764;28;20047;-65
2022/01/17 05:56:43;;;;;;;17.08;11.15;;;4.20;99.90;;;;;;5113399;28;20066;-68
2022/01/17 05:59:09;;;;;;;17.73;10.55;;;4.10;99.90;;;;;;5111027;28;20481;-67
2022/01/17 06:01:42;;;;;;;13.88;10.85;;;4.00;99.90;;;;;;5112172;27;20030;-67
2022/01/17 06:04:09;;;;;;;15.25;12.10;;;4.00;99.90;;;;;;5099416;28;20404;-66
2022/01/17 06:06:35;;;;;;;16.15;12.68;;;3.90;99.90;;;;;;5110750;28;20031;-67
2022/01/17 06:09:01;;;;;;;21.80;14.35;;;3.80;99.90;;;;;;5098157;28;20096;-66
2022/01/17 06:11:27;;;;;;;14.68;13.15;;;4.00;99.90;;;;;;5110447;28;20053;-69
2022/01/17 06:13:53;;;;;;;185.23;111.28;;;4.00;99.90;;;;;;5094117;28;20431;-68
2022/01/17 06:16:19;;;;;;;18.60;14.60;;;4.10;99.90;;;;;;5111904;28;20374;-66
2022/01/17 06:18:45;;;;;;;15.07;10.65;;;4.10;99.90;;;;;;5097434;28;20493;-67
2022/01/17 06:21:11;;;;;;;17.90;12.25;;;4.10;99.90;;;;;;5095447;28;20028;-68
2022/01/17 06:23:37;;;;;;;15.65;11.45;;;4.10;99.90;;;;;;5115016;27;20538;-65
2022/01/17 06:26:03;;;;;;;13.23;9.98;;;4.20;99.90;;;;;;5117689;27;20572;-67
2022/01/17 06:28:29;;;;;;;11.27;8.27;;;4.30;99.90;;;;;;5097005;28;20126;-66
2022/01/17 06:31:13;;;;;;;11.73;8.20;;;4.20;99.90;;;;;;5113573;28;20122;-66
2022/01/17 06:33:39;;;;;;;10.02;7.88;;;4.20;99.90;;;;;;5115104;27;20079;-67
2022/01/17 06:36:05;;;;;;;12.48;8.50;;;4.20;99.90;;;;;;5115572;27;20036;-66
2022/01/17 06:38:31;;;;;;;12.30;8.68;;;4.20;99.90;;;;;;5111347;28;20043;-65
2022/01/17 06:40:58;;;;;;;10.88;8.38;;;4.20;99.90;;;;;;5095581;28;20032;-66
2022/01/17 06:43:24;;;;;;;11.90;8.02;;;4.00;99.90;;;;;;5113068;28;20550;-67
2022/01/17 06:45:50;;;;;;;11.35;7.13;;;4.00;99.90;;;;;;5109929;27;21427;-67
2022/01/17 06:48:16;;;;;;;12.05;7.55;;;4.10;99.90;;;;;;5093831;28;20134;-67
2022/01/17 06:50:42;;;;;;;10.70;6.85;;;4.20;99.90;;;;;;5090663;27;20242;-68
2022/01/17 06:53:08;;;;;;;9.95;7.95;;;4.20;99.90;;;;;;5106896;27;20119;-66
2022/01/17 06:55:34;;;;;;;11.93;6.95;;;4.40;99.90;;;;;;5108869;28;20115;-67
2022/01/17 06:58:00;;;;;;;9.80;6.43;;;4.30;99.90;;;;;;5108402;28;20043;-67
2022/01/17 07:00:26;;;;;;;10.63;7.18;;;4.40;99.90;;;;;;5093035;27;20043;-66
2022/01/17 07:02:52;;;;;;;11.18;7.88;;;4.40;99.90;;;;;;5091505;28;20036;-66
2022/01/17 07:05:18;;;;;;;12.88;8.70;;;4.40;99.90;;;;;;5111727;27;20542;-67
2022/01/17 07:07:45;;;;;;;13.40;8.82;;;4.40;99.90;;;;;;5110851;27;20281;-67
2022/01/17 07:10:11;;;;;;;12.75;8.48;;;4.50;99.90;;;;;;5091968;28;20130;-66
2022/01/17 07:12:38;;;;;;;17.70;8.50;;;4.50;99.90;;;;;;5107544;27;20046;-66
2022/01/17 07:15:06;;;;;;;10.60;8.48;;;4.30;99.90;;;;;;5092573;28;20488;-67
2022/01/17 07:17:32;;;;;;;12.00;8.90;;;4.20;99.90;;;;;;5110247;27;20036;-67
2022/01/17 07:19:59;;;;;;;12.05;8.43;;;4.20;99.90;;;;;;5114087;27;20039;-66
2022/01/17 07:22:27;;;;;;;12.15;8.43;;;4.10;99.90;;;;;;5108538;27;20135;-66
2022/01/17 07:24:54;;;;;;;12.60;9.55;;;3.90;99.90;;;;;;5098902;28;20417;-66
2022/01/17 07:27:20;;;;;;;12.55;10.40;;;3.90;99.90;;;;;;5093932;28;20524;-68
2022/01/17 07:29:46;;;;;;;12.32;9.25;;;3.80;99.90;;;;;;5111905;28;20190;-66
2022/01/17 07:32:12;;;;;;;14.68;10.07;;;3.90;99.90;;;;;;5110678;28;20476;-68
2022/01/17 07:34:38;;;;;;;17.08;9.45;;;3.80;99.90;;;;;;5112083;28;20049;-67
2022/01/17 07:37:04;;;;;;;16.30;10.50;;;3.60;99.90;;;;;;5110722;27;20054;-67
2022/01/17 07:39:30;;;;;;;14.75;10.77;;;3.50;99.90;;;;;;5093680;28;20089;-68
2022/01/17 07:41:56;;;;;;;14.88;10.63;;;3.40;99.90;;;;;;5111822;28;20040;-67
2022/01/17 07:44:24;;;;;;;12.98;10.05;;;3.50;99.90;;;;;;5100209;28;20389;-67
2022/01/17 07:46:57;;;;;;;17.60;11.52;;;3.50;99.90;;;;;;5110971;28;20040;-67
2022/01/17 07:49:25;;;;;;;15.98;10.95;;;3.50;99.90;;;;;;5110820;27;20132;-66
2022/01/17 07:51:59;;;;;;;20.23;11.77;;;3.60;99.90;;;;;;5113214;27;20081;-68
2022/01/17 07:54:37;;;;;;;18.08;13.88;;;3.50;99.90;;;;;;5092605;28;20126;-66
2022/01/17 07:57:04;;;;;;;19.63;13.32;;;3.50;99.90;;;;;;5108439;28;20041;-66
2022/01/17 07:59:30;;;;;;;19.40;12.85;;;3.50;99.90;;;;;;5094174;28;20035;-69
2022/01/17 08:02:00;;;;;;;18.90;13.77;;;3.60;99.90;;;;;;5094750;28;20028;-66
2022/01/17 08:04:26;;;;;;;22.65;13.93;;;3.50;99.90;;;;;;5109966;28;20035;-67
2022/01/17 08:06:52;;;;;;;20.42;14.02;;;3.50;99.90;;;;;;5108741;28;20107;-66
2022/01/17 08:09:21;;;;;;;17.80;13.73;;;3.50;99.90;;;;;;5109116;28;20500;-65
2022/01/17 08:11:51;;;;;;;20.38;13.70;;;3.50;99.90;;;;;;5089183;28;20042;-66
2022/01/17 08:14:17;;;;;;;14.80;11.68;;;3.50;99.90;;;;;;5109139;28;20048;-66
2022/01/17 08:16:43;;;;;;;16.65;12.82;;;3.40;99.90;;;;;;5111281;28;20323;-68
2022/01/17 08:19:09;;;;;;;18.92;13.15;;;3.50;99.90;;;;;;5104234;28;20039;-67
2022/01/17 08:21:35;;;;;;;18.98;14.40;;;3.40;99.90;;;;;;5090883;28;20502;-66
2022/01/17 08:25:01;;;;;;;45.25;29.92;;;3.40;99.90;;;;;;5103597;28;20032;-66
2022/01/17 08:27:27;;;;;;;21.23;15.13;;;3.40;99.90;;;;;;5090694;28;20489;-66
2022/01/17 08:29:54;;;;;;;14.57;10.95;;;3.60;99.90;;;;;;5111717;28;20039;-66
2022/01/17 08:32:20;;;;;;;13.32;10.60;;;3.60;99.90;;;;;;5106861;28;20557;-67
2022/01/17 08:34:46;;;;;;;14.82;11.65;;;3.40;99.90;;;;;;5094445;28;20046;-68
2022/01/17 08:37:12;;;;;;;18.83;12.90;;;3.50;99.90;;;;;;5110529;28;20119;-66
2022/01/17 08:39:38;;;;;;;20.15;14.63;;;3.50;99.90;;;;;;5111706;28;20634;-68
2022/01/17 08:42:10;;;;;;;20.10;15.00;;;3.50;99.90;;;;;;5093054;28;20039;-65
2022/01/17 08:44:37;;;;;;;27.15;20.42;;;3.50;99.90;;;;;;5111306;28;20038;-66
2022/01/17 08:47:04;;;;;;;28.20;20.27;;;3.60;99.90;;;;;;5083550;28;20127;-67
2022/01/17 08:49:30;;;;;;;31.45;22.10;;;3.70;99.90;;;;;;5111655;28;20085;-67
2022/01/17 08:51:56;;;;;;;29.35;22.15;;;3.60;99.90;;;;;;5092783;28;20043;-67
2022/01/17 08:54:22;;;;;;;31.95;21.67;;;3.50;99.90;;;;;;5110187;28;20034;-66
2022/01/17 08:56:48;;;;;;;25.92;19.38;;;3.50;99.90;;;;;;5112067;28;20481;-68
2022/01/17 08:59:14;;;;;;;25.55;18.15;;;3.40;99.90;;;;;;5111056;28;20477;-67
2022/01/17 09:01:40;;;;;;;21.38;18.15;;;3.50;99.90;;;;;;5109852;28;20068;-67
2022/01/17 09:04:07;;;;;;;23.70;17.55;;;3.30;99.90;;;;;;5092648;28;20563;-67
2022/01/17 09:07:22;;;;;;;18.75;16.27;;;3.30;99.90;;;;;;5109498;28;20036;-67
2022/01/17 09:09:48;;;;;;;19.92;17.40;;;3.30;99.90;;;;;;5100049;28;20036;-68
2022/01/17 09:12:15;;;;;;;20.80;16.95;;;3.40;99.90;;;;;;5106664;28;20051;-66
2022/01/17 09:14:41;;;;;;;19.17;15.43;;;3.40;99.90;;;;;;5102431;28;20043;-67
2022/01/17 09:17:09;;;;;;;18.55;14.45;;;3.50;99.90;;;;;;5105780;28;20040;-67
2022/01/17 09:20:05;;;;;;;18.23;13.60;;;3.40;99.90;;;;;;5087170;28;20383;-67
2022/01/17 09:22:32;;;;;;;23.58;15.82;;;3.40;99.90;;;;;;5105996;28;20093;-67
2022/01/17 09:24:58;;;;;;;21.65;18.50;;;3.40;99.90;;;;;;5108780;28;20051;-66
2022/01/17 09:27:25;;;;;;;28.17;20.95;;;3.30;99.90;;;;;;5107765;28;20031;-65
2022/01/17 09:29:51;;;;;;;28.10;21.83;;;3.40;99.90;;;;;;5107619;28;20039;-66
2022/01/17 09:32:17;;;;;;;25.85;20.80;;;3.50;99.90;;;;;;5109001;28;20036;-66
2022/01/17 09:34:46;;;;;;;27.80;21.35;;;3.30;99.90;;;;;;5104068;28;20050;-67
2022/01/17 09:37:13;;;;;;;25.85;20.85;;;3.20;99.90;;;;;;5107034;28;20039;-66
2022/01/17 09:40:05;;;;;;;29.30;22.02;;;3.10;99.90;;;;;;5088249;28;20042;-66
2022/01/17 09:42:36;;;;;;;24.98;19.70;;;3.30;99.90;;;;;;5091354;28;20060;-67
2022/01/17 09:45:08;;;;;;;24.27;21.02;;;3.30;99.90;;;;;;5110426;28;20028;-67
2022/01/17 09:47:36;;;;;;;29.33;23.23;;;3.30;99.90;;;;;;5093617;28;20036;-66
2022/01/17 09:50:06;;;;;;;30.33;24.73;;;3.20;99.90;;;;;;5108950;28;20077;-64
2022/01/17 09:52:34;;;;;;;32.55;24.23;;;3.10;99.90;;;;;;5090030;28;20036;-66
2022/01/17 09:55:03;;;;;;;29.67;22.05;;;3.10;99.90;;;;;;5110966;28;20085;-66
2022/01/17 09:57:32;;;;;;;25.88;21.30;;;3.10;99.90;;;;;;5114043;28;20032;-67
2022/01/17 09:59:58;;;;;;;21.95;18.65;;;2.90;99.90;;;;;;5110845;28;20082;-66
2022/01/17 10:02:24;;;;;;;23.60;19.15;;;3.00;99.90;;;;;;5097885;28;20537;-66
2022/01/17 10:04:51;;;;;;;24.80;19.98;;;2.90;99.90;;;;;;5113732;28;20051;-67
2022/01/17 10:07:17;;;;;;;24.05;20.35;;;2.90;99.90;;;;;;5103496;28;20107;-67
2022/01/17 10:09:55;;;;;;;24.42;19.58;;;2.80;99.90;;;;;;5096328;28;20067;-67
2022/01/17 10:12:21;;;;;;;32.33;23.13;;;2.80;99.90;;;;;;5113544;28;20128;-66
2022/01/17 10:15:06;;;;;;;30.80;23.08;;;2.90;99.90;;;;;;5097324;28;20043;-66
2022/01/17 10:17:47;;;;;;;32.90;23.70;;;2.80;99.90;;;;;;5095611;28;20039;-65
2022/01/17 10:20:17;;;;;;;29.80;24.08;;;2.90;99.90;;;;;;5114243;28;20131;-66
2022/01/17 10:22:56;;;;;;;34.53;26.77;;;2.90;99.90;;;;;;5113357;28;20036;-65
2022/01/17 10:28:10;;;;;;;30.10;23.40;;;3.00;99.90;;;;;;5113483;28;20536;-66
2022/01/17 10:31:03;;;;;;;34.40;25.25;;;3.00;99.90;;;;;;5104440;28;20094;-70
2022/01/17 10:36:21;;;;;;;31.10;24.42;;;3.10;99.90;;;;;;5112144;28;20049;-68
2022/01/17 10:39:05;;;;;;;31.88;24.67;;;3.10;99.90;;;;;;5094319;28;20400;-66
2022/01/17 10:41:32;;;;;;;34.53;26.50;;;3.00;99.90;;;;;;5109407;27;20023;-69
2022/01/17 10:43:58;;;;;;;33.90;25.63;;;3.00;99.90;;;;;;5111859;28;20062;-67
2022/01/17 10:46:24;;;;;;;30.85;25.73;;;3.00;99.90;;;;;;5114169;28;20039;-66
2022/01/17 10:48:56;;;;;;;35.70;28.80;;;3.10;99.90;;;;;;5107677;28;20031;-67
2022/01/17 10:51:34;;;;;;;40.97;31.83;;;3.00;99.90;;;;;;5110906;28;20047;-68
2022/01/17 10:54:20;;;;;;;36.95;27.52;;;3.00;99.90;;;;;;5109184;28;20028;-68
2022/01/17 10:57:00;;;;;;;38.70;28.42;;;3.00;99.90;;;;;;5090363;28;20067;-68
2022/01/17 10:59:29;;;;;;;38.45;30.25;;;3.00;99.90;;;;;;5095290;28;20053;-67
2022/01/17 11:01:55;;;;;;;40.28;30.58;;;3.10;99.90;;;;;;5112897;28;20059;-67
2022/01/17 11:04:38;;;;;;;35.42;27.73;;;3.20;99.90;;;;;;5111465;28;20036;-65
2022/01/17 11:07:06;;;;;;;39.90;29.17;;;3.20;99.90;;;;;;5109897;28;20127;-67
2022/01/17 11:09:44;;;;;;;38.22;27.15;;;3.10;99.90;;;;;;5112499;28;20400;-66
2022/01/17 11:12:12;;;;;;;45.10;32.28;;;3.10;99.90;;;;;;5110241;27;20089;-67
2022/01/17 11:14:40;;;;;;;43.25;31.17;;;3.10;99.90;;;;;;5112433;28;20028;-65
2022/01/17 11:17:14;;;;;;;39.70;27.55;;;3.10;99.90;;;;;;5110271;28;20038;-70
2022/01/17 11:22:28;;;;;;;45.25;30.27;;;3.00;99.90;;;;;;5112563;28;20118;-66
2022/01/17 11:24:56;;;;;;;47.10;30.52;;;3.00;99.90;;;;;;5094741;28;20118;-66
2022/01/17 11:27:22;;;;;;;42.45;29.08;;;3.00;99.90;;;;;;5112974;27;20111;-66
2022/01/17 11:29:49;;;;;;;44.00;28.77;;;3.00;99.90;;;;;;5095828;28;20032;-67
2022/01/17 11:32:39;;;;;;;39.75;28.25;;;3.10;99.90;;;;;;5112582;28;20105;-67
2022/01/17 11:35:07;;;;;;;41.47;29.77;;;3.00;99.90;;;;;;5112639;28;20036;-66
2022/01/17 11:37:39;;;;;;;48.22;32.40;;;3.00;99.90;;;;;;5108355;28;20043;-66
2022/01/17 11:40:07;;;;;;;50.47;31.60;;;3.00;99.90;;;;;;5096724;28;20085;-66
2022/01/17 11:42:45;;;;;;;47.85;33.33;;;2.90;99.90;;;;;;5101122;28;20032;-66
2022/01/17 11:45:23;;;;;;;46.53;33.90;;;2.90;99.90;;;;;;5114556;27;20039;-66
2022/01/17 11:48:06;;;;;;;45.58;31.95;;;3.00;99.90;;;;;;5111604;28;20144;-66
2022/01/17 11:50:58;;;;;;;48.08;33.70;;;2.90;99.90;;;;;;5108703;28;20054;-65
2022/01/17 11:53:27;;;;;;;53.75;38.17;;;2.80;99.90;;;;;;5109444;28;20055;-65
2022/01/17 11:55:54;;;;;;;63.72;42.50;;;2.60;99.90;;;;;;5108555;28;20046;-67
2022/01/17 11:58:26;;;;;;;81.25;53.30;;;2.60;99.90;;;;;;5088678;28;20062;-66
2022/01/17 12:00:58;;;;;;;94.13;58.78;;;2.50;99.90;;;;;;5106516;27;20036;-65
2022/01/17 12:03:30;;;;;;;82.97;54.70;;;2.50;99.90;;;;;;5109171;28;20073;-66
2022/01/17 12:06:02;;;;;;;95.80;60.33;;;2.40;99.90;;;;;;5114743;27;20516;-65
2022/01/17 12:08:30;;;;;;;86.80;57.00;;;2.30;99.90;;;;;;5088503;28;20032;-66
2022/01/17 12:11:02;;;;;;;99.82;59.22;;;2.10;99.90;;;;;;5094099;28;20119;-65
2022/01/17 12:13:35;;;;;;;105.43;59.97;;;2.00;99.90;;;;;;5102923;28;20074;-67
2022/01/17 12:16:19;;;;;;;90.78;55.75;;;1.80;99.90;;;;;;5108085;28;20066;-67
2022/01/17 12:19:04;;;;;;;91.05;57.17;;;1.80;99.90;;;;;;5112124;28;20039;-65
2022/01/17 12:22:05;;;;;;;153.07;90.72;;;1.80;99.90;;;;;;5087601;28;20063;-66
2022/01/17 12:24:37;;;;;;;147.68;82.05;;;1.90;99.90;;;;;;5104029;28;20392;-64
2022/01/17 12:27:12;;;;;;;146.40;81.53;;;1.80;99.90;;;;;;5108443;28;20372;-66
2022/01/17 12:29:51;;;;;;;140.07;77.55;;;1.70;99.90;;;;;;5111538;28;20043;-65
2022/01/17 12:32:28;;;;;;;149.50;76.63;;;1.60;99.90;;;;;;5112208;28;20038;-64
2022/01/17 12:35:08;;;;;;;126.07;67.10;;;1.60;99.90;;;;;;5111081;28;20042;-66
2022/01/17 12:37:46;;;;;;;112.93;66.70;;;1.60;99.90;;;;;;5113456;28;20054;-64
2022/01/17 12:40:21;;;;;;;132.48;76.03;;;1.60;99.90;;;;;;5092748;28;20423;-65
2022/01/17 12:42:53;;;;;;;144.40;80.00;;;1.70;99.90;;;;;;5114924;28;20027;-65
2022/01/17 12:45:43;;;;;;;135.02;77.82;;;1.80;99.90;;;;;;5112053;28;20457;-65
2022/01/17 12:48:15;;;;;;;129.10;73.72;;;1.70;99.90;;;;;;5092861;28;20036;-64
2022/01/17 12:50:44;;;;;;;140.70;75.63;;;1.80;99.90;;;;;;5074688;28;20036;-65
2022/01/17 12:53:13;;;;;;;103.85;57.88;;;1.80;99.90;;;;;;5093126;28;20042;-65
2022/01/17 12:56:10;;;;;;;114.18;63.38;;;1.60;99.90;;;;;;5092880;28;20429;-64
2022/01/17 12:58:40;;;;;;;137.75;72.85;;;1.60;99.90;;;;;;5092625;28;20430;-65
2022/01/17 13:01:12;;;;;;;106.95;62.97;;;1.70;99.90;;;;;;5095598;28;20020;-64
2022/01/17 13:03:52;;;;;;;110.95;65.18;;;1.70;99.90;;;;;;5108643;28;20112;-65
2022/01/17 13:06:20;;;;;;;133.23;69.38;;;1.70;99.90;;;;;;5093876;28;20036;-65
2022/01/17 13:08:48;;;;;;;123.95;67.65;;;1.80;99.90;;;;;;5094628;28;20042;-65
2022/01/17 13:11:19;;;;;;;119.85;69.20;;;1.80;99.90;;;;;;5110157;28;20535;-65
2022/01/17 13:13:53;;;;;;;135.20;76.22;;;1.70;99.90;;;;;;5112485;28;20111;-65
2022/01/17 13:16:22;;;;;;;126.45;70.72;;;1.70;99.90;;;;;;5112745;28;20027;-65
2022/01/17 13:18:53;;;;;;;116.88;66.97;;;1.70;99.90;;;;;;5090987;28;20063;-65
2022/01/17 13:21:21;;;;;;;133.85;68.55;;;1.80;99.90;;;;;;5092555;28;20023;-65
2022/01/17 13:23:54;;;;;;;128.32;68.25;;;1.90;99.90;;;;;;5092428;28;20032;-63
2022/01/17 13:26:28;;;;;;;146.85;77.90;;;1.90;99.90;;;;;;5112674;28;20389;-65
2022/01/17 13:28:56;;;;;;;140.60;76.97;;;1.90;99.90;;;;;;5113340;28;20036;-65
2022/01/17 13:31:25;;;;;;;146.75;81.88;;;1.80;99.90;;;;;;5098309;28;20480;-66
2022/01/17 13:33:53;;;;;;;164.55;88.75;;;1.80;99.90;;;;;;5080713;28;20031;-65
2022/01/17 13:36:25;;;;;;;190.60;97.43;;;1.70;99.90;;;;;;5098288;28;20036;-65
2022/01/17 13:39:05;;;;;;;199.02;102.40;;;1.70;99.90;;;;;;5116239;28;20068;-65
2022/01/17 13:41:50;;;;;;;177.23;93.32;;;1.70;99.90;;;;;;5098238;28;20484;-65
2022/01/17 13:44:26;;;;;;;184.90;92.85;;;1.70;99.90;;;;;;5098190;28;20066;-65